sensor_id;sensor_type;location;lat;lon;timestamp;P1;durP1;ratioP1;P2;durP2;ratioP2
8929;SDS011;4500;49.074;9.110;2022-08-20T00:01:12;5.03;;;4.83;;
8929;SDS011;4500;49.074;9.110;2022-08-20T00:03:40;2.97;;;2.87;;
8929;SDS011;4500;49.074;9.110;2022-08-20T00:06:19;5.13;;;4.93;;
8929;SDS011;4500;49.074;9.110;2022-08-20T00:08:47;5.97;;;5.67;;
8929;SDS011;4500;49.074;9.110;2022-08-20T00:11:17;6.20;;;5.90;;
8929;SDS011;4500;49.074;9.110;2022-08-20T00:13:50;6.10;;;5.80;;
8929;SDS011;4500;49.074;9.110;2022-08-20T00:16:19;5.40;;;5.17;;
8929;SDS011;4500;49.074;9.110;2022-08-20T00:18:49;5.27;;;5.03;;
8929;SDS011;4500;49.074;9.110;2022-08-20T00:21:17;5.57;;;5.33;;
8929;SDS011;4500;49.074;9.110;2022-08-20T00:23:46;5.13;;;4.93;;
8929;SDS011;4500;49.074;9.110;2022-08-20T00:26:15;6.00;;;5.70;;
8929;SDS011;4500;49.074;9.110;2022-08-20T00:28:43;5.70;;;5.43;;
8929;SDS011;4500;49.074;9.110;2022-08-20T00:31:11;5.80;;;5.53;;
8929;SDS011;4500;49.074;9.110;2022-08-20T00:33:40;5.80;;;5.50;;
8929;SDS011;4500;49.074;9.110;2022-08-20T00:36:08;5.50;;;5.23;;
8929;SDS011;4500;49.074;9.110;2022-08-20T00:38:39;3.40;;;3.30;;
8929;SDS011;4500;49.074;9.110;2022-08-20T00:41:08;2.63;;;2.53;;
8929;SDS011;4500;49.074;9.110;2022-08-20T00:43:39;5.80;;;5.50;;
8929;SDS011;4500;49.074;9.110;2022-08-20T00:46:13;5.70;;;5.43;;
8929;SDS011;4500;49.074;9.110;2022-08-20T00:48:47;5.43;;;5.20;;
8929;SDS011;4500;49.074;9.110;2022-08-20T00:51:36;6.50;;;6.20;;
8929;SDS011;4500;49.074;9.110;2022-08-20T00:54:10;1.53;;;1.47;;
8929;SDS011;4500;49.074;9.110;2022-08-20T00:56:42;8.00;;;7.60;;
8929;SDS011;4500;49.074;9.110;2022-08-20T00:59:14;6.60;;;6.20;;
8929;SDS011;4500;49.074;9.110;2022-08-20T01:01:44;6.50;;;6.20;;
8929;SDS011;4500;49.074;9.110;2022-08-20T01:04:23;3.67;;;3.53;;
8929;SDS011;4500;49.074;9.110;2022-08-20T01:06:57;1.17;;;1.17;;
8929;SDS011;4500;49.074;9.110;2022-08-20T01:09:24;1.53;;;1.53;;
8929;SDS011;4500;49.074;9.110;2022-08-20T01:12:12;5.47;;;5.23;;
8929;SDS011;4500;49.074;9.110;2022-08-20T01:14:41;5.27;;;5.03;;
8929;SDS011;4500;49.074;9.110;2022-08-20T01:17:12;4.37;;;4.17;;
8929;SDS011;4500;49.074;9.110;2022-08-20T01:19:51;5.37;;;5.13;;
8929;SDS011;4500;49.074;9.110;2022-08-20T01:28:35;0.80;;;0.80;;
8929;SDS011;4500;49.074;9.110;2022-08-20T01:31:04;1.33;;;1.33;;
8929;SDS011;4500;49.074;9.110;2022-08-20T01:33:40;4.03;;;3.83;;
8929;SDS011;4500;49.074;9.110;2022-08-20T01:36:11;4.83;;;4.63;;
8929;SDS011;4500;49.074;9.110;2022-08-20T01:38:40;2.70;;;2.60;;
8929;SDS011;4500;49.074;9.110;2022-08-20T01:41:38;5.67;;;5.40;;
8929;SDS011;4500;49.074;9.110;2022-08-20T01:44:26;0.87;;;0.87;;
8929;SDS011;4500;49.074;9.110;2022-08-20T01:46:56;1.30;;;1.30;;
8929;SDS011;4500;49.074;9.110;2022-08-20T01:49:28;0.90;;;0.90;;
8929;SDS011;4500;49.074;9.110;2022-08-20T01:51:58;1.13;;;1.13;;
8929;SDS011;4500;49.074;9.110;2022-08-20T01:54:27;0.97;;;0.97;;
8929;SDS011;4500;49.074;9.110;2022-08-20T01:56:59;1.47;;;1.40;;
8929;SDS011;4500;49.074;9.110;2022-08-20T01:59:42;6.03;;;5.73;;
8929;SDS011;4500;49.074;9.110;2022-08-20T02:02:10;2.60;;;2.50;;
8929;SDS011;4500;49.074;9.110;2022-08-20T02:04:38;5.13;;;4.90;;
8929;SDS011;4500;49.074;9.110;2022-08-20T02:07:07;1.83;;;1.77;;
8929;SDS011;4500;49.074;9.110;2022-08-20T02:09:38;4.50;;;4.30;;
8929;SDS011;4500;49.074;9.110;2022-08-20T02:12:06;2.37;;;2.27;;
8929;SDS011;4500;49.074;9.110;2022-08-20T02:14:38;1.87;;;1.80;;
8929;SDS011;4500;49.074;9.110;2022-08-20T02:17:10;4.13;;;3.93;;
8929;SDS011;4500;49.074;9.110;2022-08-20T02:19:58;4.97;;;4.77;;
8929;SDS011;4500;49.074;9.110;2022-08-20T02:22:50;0.93;;;0.93;;
8929;SDS011;4500;49.074;9.110;2022-08-20T02:25:24;2.77;;;2.67;;
8929;SDS011;4500;49.074;9.110;2022-08-20T02:27:53;2.07;;;1.97;;
8929;SDS011;4500;49.074;9.110;2022-08-20T02:30:29;4.13;;;3.93;;
8929;SDS011;4500;49.074;9.110;2022-08-20T02:33:02;1.20;;;1.20;;
8929;SDS011;4500;49.074;9.110;2022-08-20T02:35:32;0.83;;;0.83;;
8929;SDS011;4500;49.074;9.110;2022-08-20T02:38:01;1.20;;;1.20;;
8929;SDS011;4500;49.074;9.110;2022-08-20T02:40:29;1.07;;;1.07;;
8929;SDS011;4500;49.074;9.110;2022-08-20T02:43:00;1.20;;;1.20;;
8929;SDS011;4500;49.074;9.110;2022-08-20T02:45:30;0.87;;;0.87;;
8929;SDS011;4500;49.074;9.110;2022-08-20T02:48:13;3.43;;;3.30;;
8929;SDS011;4500;49.074;9.110;2022-08-20T02:50:47;6.10;;;5.80;;
8929;SDS011;4500;49.074;9.110;2022-08-20T02:53:16;5.73;;;5.43;;
8929;SDS011;4500;49.074;9.110;2022-08-20T02:55:44;8.40;;;8.00;;
8929;SDS011;4500;49.074;9.110;2022-08-20T02:58:11;5.17;;;4.97;;
8929;SDS011;4500;49.074;9.110;2022-08-20T03:00:39;3.97;;;3.77;;
8929;SDS011;4500;49.074;9.110;2022-08-20T03:03:07;1.63;;;1.57;;
8929;SDS011;4500;49.074;9.110;2022-08-20T03:05:36;2.63;;;2.53;;
8929;SDS011;4500;49.074;9.110;2022-08-20T03:08:05;1.87;;;1.80;;
8929;SDS011;4500;49.074;9.110;2022-08-20T03:10:35;1.43;;;1.40;;
8929;SDS011;4500;49.074;9.110;2022-08-20T03:13:03;1.13;;;1.13;;
8929;SDS011;4500;49.074;9.110;2022-08-20T03:15:32;0.80;;;0.80;;
8929;SDS011;4500;49.074;9.110;2022-08-20T03:17:59;1.27;;;1.27;;
8929;SDS011;4500;49.074;9.110;2022-08-20T03:20:27;1.00;;;1.00;;
8929;SDS011;4500;49.074;9.110;2022-08-20T03:22:57;1.20;;;1.20;;
8929;SDS011;4500;49.074;9.110;2022-08-20T03:25:24;0.90;;;0.90;;
8929;SDS011;4500;49.074;9.110;2022-08-20T03:27:52;3.03;;;2.93;;
8929;SDS011;4500;49.074;9.110;2022-08-20T03:30:21;5.67;;;5.40;;
8929;SDS011;4500;49.074;9.110;2022-08-20T03:32:50;6.90;;;6.60;;
8929;SDS011;4500;49.074;9.110;2022-08-20T03:35:18;6.03;;;5.73;;
8929;SDS011;4500;49.074;9.110;2022-08-20T03:37:46;6.50;;;6.20;;
8929;SDS011;4500;49.074;9.110;2022-08-20T03:40:24;6.60;;;6.30;;
8929;SDS011;4500;49.074;9.110;2022-08-20T03:42:54;3.20;;;3.10;;
8929;SDS011;4500;49.074;9.110;2022-08-20T03:45:21;5.17;;;4.97;;
8929;SDS011;4500;49.074;9.110;2022-08-20T03:47:50;5.93;;;5.63;;
8929;SDS011;4500;49.074;9.110;2022-08-20T03:50:20;6.40;;;6.10;;
8929;SDS011;4500;49.074;9.110;2022-08-20T03:52:50;6.13;;;5.83;;
8929;SDS011;4500;49.074;9.110;2022-08-20T03:55:17;6.63;;;6.33;;
8929;SDS011;4500;49.074;9.110;2022-08-20T03:57:47;6.00;;;5.70;;
8929;SDS011;4500;49.074;9.110;2022-08-20T04:00:24;5.50;;;5.23;;
8929;SDS011;4500;49.074;9.110;2022-08-20T04:02:53;3.27;;;3.17;;
8929;SDS011;4500;49.074;9.110;2022-08-20T04:05:26;3.10;;;3.00;;
8929;SDS011;4500;49.074;9.110;2022-08-20T04:07:56;1.17;;;1.17;;
8929;SDS011;4500;49.074;9.110;2022-08-20T04:10:28;0.90;;;0.90;;
8929;SDS011;4500;49.074;9.110;2022-08-20T04:12:57;1.20;;;1.20;;
8929;SDS011;4500;49.074;9.110;2022-08-20T04:15:24;1.13;;;1.13;;
8929;SDS011;4500;49.074;9.110;2022-08-20T04:17:52;3.50;;;3.40;;
8929;SDS011;4500;49.074;9.110;2022-08-20T04:20:21;6.00;;;5.73;;
8929;SDS011;4500;49.074;9.110;2022-08-20T04:22:51;5.40;;;5.20;;
8929;SDS011;4500;49.074;9.110;2022-08-20T04:25:25;0.90;;;0.90;;
8929;SDS011;4500;49.074;9.110;2022-08-20T04:28:02;1.30;;;1.30;;
8929;SDS011;4500;49.074;9.110;2022-08-20T04:30:31;0.83;;;0.83;;
8929;SDS011;4500;49.074;9.110;2022-08-20T04:32:59;0.97;;;0.97;;
8929;SDS011;4500;49.074;9.110;2022-08-20T04:35:27;0.90;;;0.90;;
8929;SDS011;4500;49.074;9.110;2022-08-20T04:37:57;1.30;;;1.30;;
8929;SDS011;4500;49.074;9.110;2022-08-20T04:40:32;0.77;;;0.77;;
8929;SDS011;4500;49.074;9.110;2022-08-20T04:43:20;5.90;;;5.60;;
8929;SDS011;4500;49.074;9.110;2022-08-20T04:45:51;7.00;;;6.70;;
8929;SDS011;4500;49.074;9.110;2022-08-20T04:48:19;6.70;;;6.40;;
8929;SDS011;4500;49.074;9.110;2022-08-20T04:50:49;5.77;;;5.50;;
8929;SDS011;4500;49.074;9.110;2022-08-20T04:53:18;6.00;;;5.70;;
8929;SDS011;4500;49.074;9.110;2022-08-20T04:55:51;5.13;;;4.93;;
8929;SDS011;4500;49.074;9.110;2022-08-20T04:58:21;5.43;;;5.23;;
8929;SDS011;4500;49.074;9.110;2022-08-20T05:00:54;2.83;;;2.73;;
8929;SDS011;4500;49.074;9.110;2022-08-20T05:03:26;0.90;;;0.90;;
8929;SDS011;4500;49.074;9.110;2022-08-20T05:05:54;2.37;;;2.27;;
8929;SDS011;4500;49.074;9.110;2022-08-20T05:08:22;2.90;;;2.80;;
8929;SDS011;4500;49.074;9.110;2022-08-20T05:10:51;5.13;;;4.93;;
8929;SDS011;4500;49.074;9.110;2022-08-20T05:13:39;3.17;;;3.07;;
8929;SDS011;4500;49.074;9.110;2022-08-20T05:16:08;4.07;;;3.90;;
8929;SDS011;4500;49.074;9.110;2022-08-20T05:18:35;2.13;;;2.07;;
8929;SDS011;4500;49.074;9.110;2022-08-20T05:21:03;1.30;;;1.30;;
8929;SDS011;4500;49.074;9.110;2022-08-20T05:23:34;1.00;;;1.00;;
8929;SDS011;4500;49.074;9.110;2022-08-20T05:26:03;1.17;;;1.17;;
8929;SDS011;4500;49.074;9.110;2022-08-20T05:28:33;0.90;;;0.90;;
8929;SDS011;4500;49.074;9.110;2022-08-20T05:31:19;5.83;;;5.53;;
8929;SDS011;4500;49.074;9.110;2022-08-20T05:33:46;6.17;;;5.87;;
8929;SDS011;4500;49.074;9.110;2022-08-20T05:36:17;6.60;;;6.30;;
8929;SDS011;4500;49.074;9.110;2022-08-20T05:38:44;7.67;;;7.30;;
8929;SDS011;4500;49.074;9.110;2022-08-20T05:41:15;6.93;;;6.63;;
8929;SDS011;4500;49.074;9.110;2022-08-20T05:43:55;1.13;;;1.13;;
8929;SDS011;4500;49.074;9.110;2022-08-20T05:46:25;0.90;;;0.90;;
8929;SDS011;4500;49.074;9.110;2022-08-20T05:48:52;3.67;;;3.53;;
8929;SDS011;4500;49.074;9.110;2022-08-20T05:51:19;6.00;;;5.70;;
8929;SDS011;4500;49.074;9.110;2022-08-20T05:53:47;6.33;;;6.03;;
8929;SDS011;4500;49.074;9.110;2022-08-20T05:56:14;7.03;;;6.73;;
8929;SDS011;4500;49.074;9.110;2022-08-20T05:58:41;5.73;;;5.47;;
8929;SDS011;4500;49.074;9.110;2022-08-20T06:01:09;4.07;;;3.87;;
8929;SDS011;4500;49.074;9.110;2022-08-20T06:03:36;1.57;;;1.50;;
8929;SDS011;4500;49.074;9.110;2022-08-20T06:06:22;3.07;;;2.97;;
8929;SDS011;4500;49.074;9.110;2022-08-20T06:09:09;3.73;;;3.53;;
8929;SDS011;4500;49.074;9.110;2022-08-20T06:11:36;1.67;;;1.60;;
8929;SDS011;4500;49.074;9.110;2022-08-20T06:14:03;0.97;;;0.97;;
8929;SDS011;4500;49.074;9.110;2022-08-20T06:16:31;0.80;;;0.80;;
8929;SDS011;4500;49.074;9.110;2022-08-20T06:18:58;1.10;;;1.10;;
8929;SDS011;4500;49.074;9.110;2022-08-20T06:21:28;0.73;;;0.73;;
8929;SDS011;4500;49.074;9.110;2022-08-20T06:23:55;1.30;;;1.30;;
8929;SDS011;4500;49.074;9.110;2022-08-20T06:26:26;0.80;;;0.80;;
8929;SDS011;4500;49.074;9.110;2022-08-20T06:28:56;1.03;;;1.03;;
8929;SDS011;4500;49.074;9.110;2022-08-20T06:31:25;0.90;;;0.90;;
8929;SDS011;4500;49.074;9.110;2022-08-20T06:33:52;2.80;;;2.70;;
8929;SDS011;4500;49.074;9.110;2022-08-20T06:36:20;6.10;;;5.80;;
8929;SDS011;4500;49.074;9.110;2022-08-20T06:38:47;6.63;;;6.33;;
8929;SDS011;4500;49.074;9.110;2022-08-20T06:41:15;6.20;;;5.90;;
8929;SDS011;4500;49.074;9.110;2022-08-20T06:43:42;5.70;;;5.43;;
8929;SDS011;4500;49.074;9.110;2022-08-20T06:46:12;6.00;;;5.70;;
8929;SDS011;4500;49.074;9.110;2022-08-20T06:48:40;3.10;;;3.00;;
8929;SDS011;4500;49.074;9.110;2022-08-20T06:51:07;1.67;;;1.60;;
8929;SDS011;4500;49.074;9.110;2022-08-20T06:53:35;2.13;;;2.03;;
8929;SDS011;4500;49.074;9.110;2022-08-20T06:56:03;1.20;;;1.20;;
8929;SDS011;4500;49.074;9.110;2022-08-20T06:58:30;0.80;;;0.80;;
8929;SDS011;4500;49.074;9.110;2022-08-20T07:01:06;1.00;;;1.00;;
8929;SDS011;4500;49.074;9.110;2022-08-20T07:03:37;1.83;;;1.77;;
8929;SDS011;4500;49.074;9.110;2022-08-20T07:06:20;6.20;;;5.90;;
8929;SDS011;4500;49.074;9.110;2022-08-20T07:08:48;5.90;;;5.60;;
8929;SDS011;4500;49.074;9.110;2022-08-20T07:11:15;6.00;;;5.70;;
8929;SDS011;4500;49.074;9.110;2022-08-20T07:13:42;5.37;;;5.13;;
8929;SDS011;4500;49.074;9.110;2022-08-20T07:16:10;3.53;;;3.43;;
8929;SDS011;4500;49.074;9.110;2022-08-20T07:18:37;3.10;;;3.00;;
8929;SDS011;4500;49.074;9.110;2022-08-20T07:21:05;2.07;;;1.97;;
8929;SDS011;4500;49.074;9.110;2022-08-20T07:23:32;0.90;;;0.90;;
8929;SDS011;4500;49.074;9.110;2022-08-20T07:26:00;1.17;;;1.17;;
8929;SDS011;4500;49.074;9.110;2022-08-20T07:28:29;0.80;;;0.80;;
8929;SDS011;4500;49.074;9.110;2022-08-20T07:30:59;1.27;;;1.27;;
8929;SDS011;4500;49.074;9.110;2022-08-20T07:33:46;5.07;;;4.87;;
8929;SDS011;4500;49.074;9.110;2022-08-20T07:36:16;5.60;;;5.30;;
8929;SDS011;4500;49.074;9.110;2022-08-20T07:38:43;5.47;;;5.23;;
8929;SDS011;4500;49.074;9.110;2022-08-20T07:41:13;5.47;;;5.23;;
8929;SDS011;4500;49.074;9.110;2022-08-20T07:43:41;3.13;;;3.03;;
8929;SDS011;4500;49.074;9.110;2022-08-20T07:46:13;4.60;;;4.40;;
8929;SDS011;4500;49.074;9.110;2022-08-20T07:48:46;5.90;;;5.60;;
8929;SDS011;4500;49.074;9.110;2022-08-20T07:51:18;5.90;;;5.60;;
8929;SDS011;4500;49.074;9.110;2022-08-20T07:53:48;5.93;;;5.63;;
8929;SDS011;4500;49.074;9.110;2022-08-20T07:56:18;5.87;;;5.60;;
8929;SDS011;4500;49.074;9.110;2022-08-20T07:58:48;6.60;;;6.30;;
8929;SDS011;4500;49.074;9.110;2022-08-20T08:01:23;5.57;;;5.30;;
8929;SDS011;4500;49.074;9.110;2022-08-20T08:03:56;1.20;;;1.20;;
8929;SDS011;4500;49.074;9.110;2022-08-20T08:06:24;1.83;;;1.83;;
8929;SDS011;4500;49.074;9.110;2022-08-20T08:09:07;1.10;;;1.10;;
8929;SDS011;4500;49.074;9.110;2022-08-20T08:11:37;1.97;;;1.90;;
8929;SDS011;4500;49.074;9.110;2022-08-20T08:14:12;5.30;;;5.10;;
8929;SDS011;4500;49.074;9.110;2022-08-20T08:16:40;3.53;;;3.40;;
8929;SDS011;4500;49.074;9.110;2022-08-20T08:19:11;3.30;;;3.20;;
8929;SDS011;4500;49.074;9.110;2022-08-20T08:21:41;2.70;;;2.60;;
8929;SDS011;4500;49.074;9.110;2022-08-20T08:24:09;3.70;;;3.53;;
8929;SDS011;4500;49.074;9.110;2022-08-20T08:26:42;5.23;;;5.03;;
8929;SDS011;4500;49.074;9.110;2022-08-20T08:29:09;3.30;;;3.20;;
8929;SDS011;4500;49.074;9.110;2022-08-20T08:31:37;1.67;;;1.60;;
8929;SDS011;4500;49.074;9.110;2022-08-20T08:34:06;1.93;;;1.87;;
8929;SDS011;4500;49.074;9.110;2022-08-20T08:36:33;0.70;;;0.70;;
8929;SDS011;4500;49.074;9.110;2022-08-20T08:39:01;1.20;;;1.20;;
8929;SDS011;4500;49.074;9.110;2022-08-20T08:41:33;0.77;;;0.77;;
8929;SDS011;4500;49.074;9.110;2022-08-20T08:44:04;1.10;;;1.10;;
8929;SDS011;4500;49.074;9.110;2022-08-20T08:46:38;0.70;;;0.70;;
8929;SDS011;4500;49.074;9.110;2022-08-20T08:49:13;3.20;;;3.10;;
8929;SDS011;4500;49.074;9.110;2022-08-20T08:51:50;4.87;;;4.67;;
8929;SDS011;4500;49.074;9.110;2022-08-20T08:54:22;4.00;;;3.80;;
8929;SDS011;4500;49.074;9.110;2022-08-20T08:56:51;4.80;;;4.60;;
8929;SDS011;4500;49.074;9.110;2022-08-20T08:59:19;5.37;;;5.13;;
8929;SDS011;4500;49.074;9.110;2022-08-20T09:01:56;6.00;;;5.70;;
8929;SDS011;4500;49.074;9.110;2022-08-20T09:04:31;0.70;;;0.70;;
8929;SDS011;4500;49.074;9.110;2022-08-20T09:07:00;1.00;;;1.00;;
8929;SDS011;4500;49.074;9.110;2022-08-20T09:09:36;0.70;;;0.70;;
8929;SDS011;4500;49.074;9.110;2022-08-20T09:12:10;2.50;;;2.40;;
8929;SDS011;4500;49.074;9.110;2022-08-20T09:14:44;8.00;;;7.60;;
8929;SDS011;4500;49.074;9.110;2022-08-20T09:17:14;6.07;;;5.77;;
8929;SDS011;4500;49.074;9.110;2022-08-20T09:19:42;5.00;;;4.80;;
8929;SDS011;4500;49.074;9.110;2022-08-20T09:22:10;3.80;;;3.60;;
8929;SDS011;4500;49.074;9.110;2022-08-20T09:24:45;5.80;;;5.50;;
8929;SDS011;4500;49.074;9.110;2022-08-20T09:27:12;5.07;;;4.87;;
8929;SDS011;4500;49.074;9.110;2022-08-20T09:29:40;3.13;;;3.03;;
8929;SDS011;4500;49.074;9.110;2022-08-20T09:34:42;4.70;;;4.50;;
8929;SDS011;4500;49.074;9.110;2022-08-20T09:37:11;5.70;;;5.43;;
8929;SDS011;4500;49.074;9.110;2022-08-20T09:39:39;4.80;;;4.60;;
8929;SDS011;4500;49.074;9.110;2022-08-20T09:42:07;1.83;;;1.77;;
8929;SDS011;4500;49.074;9.110;2022-08-20T09:44:40;3.47;;;3.33;;
8929;SDS011;4500;49.074;9.110;2022-08-20T09:47:07;1.40;;;1.37;;
8929;SDS011;4500;49.074;9.110;2022-08-20T09:49:35;1.40;;;1.37;;
8929;SDS011;4500;49.074;9.110;2022-08-20T09:52:04;1.00;;;1.00;;
8929;SDS011;4500;49.074;9.110;2022-08-20T09:54:34;0.90;;;0.90;;
8929;SDS011;4500;49.074;9.110;2022-08-20T09:57:04;1.00;;;1.00;;
8929;SDS011;4500;49.074;9.110;2022-08-20T09:59:33;0.80;;;0.80;;
8929;SDS011;4500;49.074;9.110;2022-08-20T10:02:00;0.93;;;0.93;;
8929;SDS011;4500;49.074;9.110;2022-08-20T10:04:28;0.80;;;0.80;;
8929;SDS011;4500;49.074;9.110;2022-08-20T10:06:55;1.30;;;1.30;;
8929;SDS011;4500;49.074;9.110;2022-08-20T10:09:23;2.33;;;2.23;;
8929;SDS011;4500;49.074;9.110;2022-08-20T10:11:50;6.40;;;6.10;;
8929;SDS011;4500;49.074;9.110;2022-08-20T10:14:17;5.13;;;4.93;;
8929;SDS011;4500;49.074;9.110;2022-08-20T10:16:45;6.93;;;6.63;;
8929;SDS011;4500;49.074;9.110;2022-08-20T10:19:12;4.87;;;4.67;;
8929;SDS011;4500;49.074;9.110;2022-08-20T10:21:39;3.67;;;3.50;;
8929;SDS011;4500;49.074;9.110;2022-08-20T10:24:07;2.63;;;2.53;;
8929;SDS011;4500;49.074;9.110;2022-08-20T10:26:36;1.10;;;1.10;;
8929;SDS011;4500;49.074;9.110;2022-08-20T10:29:03;0.70;;;0.70;;
8929;SDS011;4500;49.074;9.110;2022-08-20T10:31:31;0.80;;;0.80;;
8929;SDS011;4500;49.074;9.110;2022-08-20T10:33:58;1.17;;;1.17;;
8929;SDS011;4500;49.074;9.110;2022-08-20T10:36:28;0.80;;;0.80;;
8929;SDS011;4500;49.074;9.110;2022-08-20T10:38:55;1.20;;;1.20;;
8929;SDS011;4500;49.074;9.110;2022-08-20T10:41:23;2.80;;;2.70;;
8929;SDS011;4500;49.074;9.110;2022-08-20T10:43:50;5.90;;;5.63;;
8929;SDS011;4500;49.074;9.110;2022-08-20T10:46:17;5.67;;;5.40;;
8929;SDS011;4500;49.074;9.110;2022-08-20T10:48:44;6.13;;;5.83;;
8929;SDS011;4500;49.074;9.110;2022-08-20T10:51:12;5.30;;;5.07;;
8929;SDS011;4500;49.074;9.110;2022-08-20T10:53:40;2.37;;;2.27;;
8929;SDS011;4500;49.074;9.110;2022-08-20T10:56:07;1.53;;;1.47;;
8929;SDS011;4500;49.074;9.110;2022-08-20T10:58:40;2.20;;;2.10;;
8929;SDS011;4500;49.074;9.110;2022-08-20T11:01:09;3.47;;;3.33;;
8929;SDS011;4500;49.074;9.110;2022-08-20T11:03:36;1.80;;;1.73;;
8929;SDS011;4500;49.074;9.110;2022-08-20T11:06:04;0.80;;;0.80;;
8929;SDS011;4500;49.074;9.110;2022-08-20T11:08:31;0.80;;;0.80;;
8929;SDS011;4500;49.074;9.110;2022-08-20T11:11:01;1.13;;;1.13;;
8929;SDS011;4500;49.074;9.110;2022-08-20T11:13:30;0.77;;;0.77;;
8929;SDS011;4500;49.074;9.110;2022-08-20T11:15:59;1.10;;;1.10;;
8929;SDS011;4500;49.074;9.110;2022-08-20T11:18:26;0.80;;;0.80;;
8929;SDS011;4500;49.074;9.110;2022-08-20T11:20:54;2.80;;;2.70;;
8929;SDS011;4500;49.074;9.110;2022-08-20T11:23:21;4.83;;;4.63;;
8929;SDS011;4500;49.074;9.110;2022-08-20T11:25:48;4.90;;;4.70;;
8929;SDS011;4500;49.074;9.110;2022-08-20T11:28:16;4.90;;;4.70;;
8929;SDS011;4500;49.074;9.110;2022-08-20T11:30:56;1.23;;;1.23;;
8929;SDS011;4500;49.074;9.110;2022-08-20T11:33:23;1.53;;;1.53;;
8929;SDS011;4500;49.074;9.110;2022-08-20T11:35:51;5.50;;;5.30;;
8929;SDS011;4500;49.074;9.110;2022-08-20T11:38:18;5.37;;;5.13;;
8929;SDS011;4500;49.074;9.110;2022-08-20T11:40:45;4.70;;;4.50;;
8929;SDS011;4500;49.074;9.110;2022-08-20T11:43:13;4.60;;;4.40;;
8929;SDS011;4500;49.074;9.110;2022-08-20T11:45:47;4.50;;;4.30;;
8929;SDS011;4500;49.074;9.110;2022-08-20T11:48:18;5.23;;;5.03;;
8929;SDS011;4500;49.074;9.110;2022-08-20T11:50:46;5.67;;;5.40;;
8929;SDS011;4500;49.074;9.110;2022-08-20T11:53:14;4.60;;;4.40;;
8929;SDS011;4500;49.074;9.110;2022-08-20T11:55:42;6.03;;;5.73;;
8929;SDS011;4500;49.074;9.110;2022-08-20T11:58:09;3.70;;;3.53;;
8929;SDS011;4500;49.074;9.110;2022-08-20T12:00:36;1.63;;;1.57;;
8929;SDS011;4500;49.074;9.110;2022-08-20T12:03:06;0.80;;;0.80;;
8929;SDS011;4500;49.074;9.110;2022-08-20T12:05:37;1.67;;;1.60;;
8929;SDS011;4500;49.074;9.110;2022-08-20T12:08:10;3.13;;;3.03;;
8929;SDS011;4500;49.074;9.110;2022-08-20T12:10:53;2.93;;;2.83;;
8929;SDS011;4500;49.074;9.110;2022-08-20T12:13:26;0.80;;;0.80;;
8929;SDS011;4500;49.074;9.110;2022-08-20T12:16:14;4.60;;;4.40;;
8929;SDS011;4500;49.074;9.110;2022-08-20T12:18:45;6.77;;;6.47;;
8929;SDS011;4500;49.074;9.110;2022-08-20T12:21:13;4.30;;;4.10;;
8929;SDS011;4500;49.074;9.110;2022-08-20T12:23:40;2.40;;;2.30;;
8929;SDS011;4500;49.074;9.110;2022-08-20T12:26:07;1.33;;;1.30;;
8929;SDS011;4500;49.074;9.110;2022-08-20T12:28:36;2.00;;;1.93;;
8929;SDS011;4500;49.074;9.110;2022-08-20T12:31:03;1.00;;;1.00;;
8929;SDS011;4500;49.074;9.110;2022-08-20T12:33:31;0.93;;;0.93;;
8929;SDS011;4500;49.074;9.110;2022-08-20T12:35:58;1.10;;;1.10;;
8929;SDS011;4500;49.074;9.110;2022-08-20T12:38:25;0.90;;;0.90;;
8929;SDS011;4500;49.074;9.110;2022-08-20T12:40:52;2.50;;;2.40;;
8929;SDS011;4500;49.074;9.110;2022-08-20T12:43:19;5.03;;;4.83;;
8929;SDS011;4500;49.074;9.110;2022-08-20T12:45:50;5.60;;;5.40;;
8929;SDS011;4500;49.074;9.110;2022-08-20T12:48:18;4.93;;;4.73;;
8929;SDS011;4500;49.074;9.110;2022-08-20T12:50:46;5.23;;;5.03;;
8929;SDS011;4500;49.074;9.110;2022-08-20T12:53:15;4.80;;;4.60;;
8929;SDS011;4500;49.074;9.110;2022-08-20T12:55:43;4.93;;;4.73;;
8929;SDS011;4500;49.074;9.110;2022-08-20T12:58:11;4.17;;;3.97;;
8929;SDS011;4500;49.074;9.110;2022-08-20T13:00:42;2.47;;;2.37;;
8929;SDS011;4500;49.074;9.110;2022-08-20T13:03:16;5.10;;;4.90;;
8929;SDS011;4500;49.074;9.110;2022-08-20T13:05:45;6.30;;;6.00;;
8929;SDS011;4500;49.074;9.110;2022-08-20T13:08:12;4.80;;;4.60;;
8929;SDS011;4500;49.074;9.110;2022-08-20T13:10:41;3.03;;;2.93;;
8929;SDS011;4500;49.074;9.110;2022-08-20T13:13:12;3.30;;;3.20;;
8929;SDS011;4500;49.074;9.110;2022-08-20T13:15:46;4.40;;;4.20;;
8929;SDS011;4500;49.074;9.110;2022-08-20T13:18:15;6.40;;;6.10;;
8929;SDS011;4500;49.074;9.110;2022-08-20T13:20:42;4.53;;;4.33;;
8929;SDS011;4500;49.074;9.110;2022-08-20T13:23:10;3.07;;;2.97;;
8929;SDS011;4500;49.074;9.110;2022-08-20T13:25:37;1.57;;;1.50;;
8929;SDS011;4500;49.074;9.110;2022-08-20T13:28:04;0.70;;;0.70;;
8929;SDS011;4500;49.074;9.110;2022-08-20T13:30:33;0.70;;;0.70;;
8929;SDS011;4500;49.074;9.110;2022-08-20T13:33:03;0.70;;;0.70;;
8929;SDS011;4500;49.074;9.110;2022-08-20T13:35:31;0.70;;;0.70;;
8929;SDS011;4500;49.074;9.110;2022-08-20T13:37:58;1.00;;;1.00;;
8929;SDS011;4500;49.074;9.110;2022-08-20T13:40:26;0.70;;;0.70;;
8929;SDS011;4500;49.074;9.110;2022-08-20T13:42:53;2.50;;;2.40;;
8929;SDS011;4500;49.074;9.110;2022-08-20T13:45:21;4.93;;;4.73;;
8929;SDS011;4500;49.074;9.110;2022-08-20T13:47:50;4.80;;;4.60;;
8929;SDS011;4500;49.074;9.110;2022-08-20T13:50:20;4.60;;;4.40;;
8929;SDS011;4500;49.074;9.110;2022-08-20T13:52:49;4.97;;;4.73;;
8929;SDS011;4500;49.074;9.110;2022-08-20T13:55:18;4.50;;;4.30;;
8929;SDS011;4500;49.074;9.110;2022-08-20T13:57:46;4.40;;;4.20;;
8929;SDS011;4500;49.074;9.110;2022-08-20T14:00:18;4.13;;;3.93;;
8929;SDS011;4500;49.074;9.110;2022-08-20T14:02:57;1.10;;;1.10;;
8929;SDS011;4500;49.074;9.110;2022-08-20T14:05:28;0.77;;;0.77;;
8929;SDS011;4500;49.074;9.110;2022-08-20T14:08:03;1.00;;;1.00;;
8929;SDS011;4500;49.074;9.110;2022-08-20T14:10:38;2.03;;;1.97;;
8929;SDS011;4500;49.074;9.110;2022-08-20T14:13:08;1.63;;;1.57;;
8929;SDS011;4500;49.074;9.110;2022-08-20T14:15:40;2.43;;;2.33;;
8929;SDS011;4500;49.074;9.110;2022-08-20T14:18:08;2.77;;;2.67;;
8929;SDS011;4500;49.074;9.110;2022-08-20T14:20:35;1.50;;;1.43;;
8929;SDS011;4500;49.074;9.110;2022-08-20T14:23:04;0.80;;;0.80;;
8929;SDS011;4500;49.074;9.110;2022-08-20T14:25:31;0.70;;;0.70;;
8929;SDS011;4500;49.074;9.110;2022-08-20T14:28:07;0.90;;;0.90;;
8929;SDS011;4500;49.074;9.110;2022-08-20T14:30:35;1.60;;;1.53;;
8929;SDS011;4500;49.074;9.110;2022-08-20T14:33:03;0.93;;;0.93;;
8929;SDS011;4500;49.074;9.110;2022-08-20T14:35:30;0.80;;;0.80;;
8929;SDS011;4500;49.074;9.110;2022-08-20T14:37:59;1.13;;;1.13;;
8929;SDS011;4500;49.074;9.110;2022-08-20T14:40:30;0.60;;;0.60;;
8929;SDS011;4500;49.074;9.110;2022-08-20T14:42:58;0.83;;;0.83;;
8929;SDS011;4500;49.074;9.110;2022-08-20T14:45:26;0.70;;;0.70;;
8929;SDS011;4500;49.074;9.110;2022-08-20T14:47:55;2.90;;;2.80;;
8929;SDS011;4500;49.074;9.110;2022-08-20T14:50:24;2.10;;;2.00;;
8929;SDS011;4500;49.074;9.110;2022-08-20T14:52:56;1.00;;;1.00;;
8929;SDS011;4500;49.074;9.110;2022-08-20T14:55:25;1.20;;;1.20;;
8929;SDS011;4500;49.074;9.110;2022-08-20T14:57:54;1.70;;;1.70;;
8929;SDS011;4500;49.074;9.110;2022-08-20T15:00:23;3.97;;;3.80;;
8929;SDS011;4500;49.074;9.110;2022-08-20T15:02:52;3.10;;;3.00;;
8929;SDS011;4500;49.074;9.110;2022-08-20T15:05:19;4.30;;;4.10;;
8929;SDS011;4500;49.074;9.110;2022-08-20T15:07:49;6.07;;;5.77;;
8929;SDS011;4500;49.074;9.110;2022-08-20T15:10:21;4.10;;;3.90;;
8929;SDS011;4500;49.074;9.110;2022-08-20T15:12:50;4.70;;;4.50;;
8929;SDS011;4500;49.074;9.110;2022-08-20T15:15:17;3.53;;;3.43;;
8929;SDS011;4500;49.074;9.110;2022-08-20T15:17:46;4.67;;;4.47;;
8929;SDS011;4500;49.074;9.110;2022-08-20T15:20:18;4.10;;;3.90;;
8929;SDS011;4500;49.074;9.110;2022-08-20T15:22:47;3.27;;;3.17;;
8929;SDS011;4500;49.074;9.110;2022-08-20T15:25:16;5.00;;;4.80;;
8929;SDS011;4500;49.074;9.110;2022-08-20T15:27:46;4.00;;;3.80;;
8929;SDS011;4500;49.074;9.110;2022-08-20T15:30:14;4.30;;;4.10;;
8929;SDS011;4500;49.074;9.110;2022-08-20T15:32:43;4.40;;;4.20;;
8929;SDS011;4500;49.074;9.110;2022-08-20T15:35:11;2.50;;;2.40;;
8929;SDS011;4500;49.074;9.110;2022-08-20T15:37:43;2.47;;;2.37;;
8929;SDS011;4500;49.074;9.110;2022-08-20T15:40:12;3.40;;;3.30;;
8929;SDS011;4500;49.074;9.110;2022-08-20T15:42:41;2.70;;;2.60;;